Crook, United Kingdom
Current Conditions -  °F | °C
As of 6:50 AM on Wednesday 28 Jan 2015 (Local Time) from EGNV Reporting Station
Broken Clouds Broken Clouds  
Wind Chill:   Ceiling: 2100
Heat Index:   Visibility: 6mi
Dew Point:   Wind: 16mph
Humidity: 82%   Direction: 210°SSW
Pressure: 29.35"   Gusts: NA
Location:  54.71°N, 1.69°W
Report Text: EGNV 280650Z 21014KT 180V240 9999 SCT017 BKN021 09/06 Q0994
Loading
Personal Weather Stations






























Interactive Weather Map New forecast layout! Learn more

10-Day Weather Forecast

Advertisements
Track Severe Weather on mobile